Time;durP1;ratioP1;P1;durP2;ratioP2;P2;SDS_P1;SDS_P2;PMS_P1;PMS_P2;Temp;Humidity;BMP_temperature;BMP_pressure;BME280_temperature;BME280_humidity;BME280_pressure;Samples;Min_cycle;Max_cycle;Signal;HPM_P1;HPM_P2
2023/01/17 00:01:16;;;;;;;3.10;0.40;;;1.80;99.90;;;;;;5059815;28;20055;-73
2023/01/17 00:11:57;;;;;;;2.13;0.32;;;1.90;99.90;;;;;;5092842;28;20734;-74
2023/01/17 00:14:23;;;;;;;4.55;0.32;;;2.00;99.90;;;;;;5070407;28;20067;-73
2023/01/17 00:16:49;;;;;;;6.27;0.50;;;2.00;99.90;;;;;;5089815;28;20048;-73
2023/01/17 01:33:44;;;;;;;7.20;0.30;;;2.00;99.90;;;;;;5095695;28;20048;-73
2023/01/17 01:36:10;;;;;;;4.30;0.30;;;2.00;99.90;;;;;;5086339;28;20432;-73
2023/01/17 01:38:36;;;;;;;5.03;0.53;;;2.00;99.90;;;;;;5079414;28;20050;-73
2023/01/17 01:41:02;;;;;;;4.88;0.17;;;2.00;99.90;;;;;;5073685;28;20040;-73
2023/01/17 01:43:46;;;;;;;4.85;1.05;;;2.00;99.90;;;;;;5077976;28;20050;-73
2023/01/17 01:46:38;;;;;;;5.38;0.40;;;2.00;99.90;;;;;;5097851;28;20042;-73
2023/01/17 01:49:20;;;;;;;6.68;0.70;;;1.90;99.90;;;;;;5098044;28;20123;-73
2023/01/17 01:51:59;;;;;;;5.20;0.40;;;1.90;99.90;;;;;;5087155;28;20039;-73
2023/01/17 01:54:49;;;;;;;3.88;0.30;;;1.80;99.90;;;;;;5093521;28;20075;-73
2023/01/17 01:57:20;;;;;;;4.82;0.20;;;1.70;99.90;;;;;;5073239;28;20063;-73
2023/01/17 01:59:56;;;;;;;3.08;0.28;;;1.60;99.90;;;;;;5096298;28;20070;-73
2023/01/17 02:02:22;;;;;;;5.15;0.30;;;1.60;99.90;;;;;;5089982;28;20051;-73
2023/01/17 02:04:49;;;;;;;2.70;0.13;;;1.50;99.90;;;;;;5092193;28;20040;-73
2023/01/17 02:07:22;;;;;;;6.05;0.35;;;1.40;99.90;;;;;;5087563;28;20028;-72
2023/01/17 02:09:49;;;;;;;3.70;0.20;;;1.40;99.90;;;;;;5091672;28;20137;-73
2023/01/17 02:12:16;;;;;;;2.95;0.30;;;1.40;99.90;;;;;;5081946;28;20036;-73
2023/01/17 02:14:41;;;;;;;7.40;0.63;;;1.40;99.90;;;;;;5089183;28;20101;-72
2023/01/17 02:17:19;;;;;;;7.13;0.30;;;1.40;99.90;;;;;;5099408;28;20415;-72
2023/01/17 02:20:04;;;;;;;4.90;0.30;;;1.50;99.90;;;;;;5082601;28;20071;-73
2023/01/17 02:22:29;;;;;;;3.03;0.50;;;1.40;99.90;;;;;;5095639;28;20072;-73
2023/01/17 02:25:18;;;;;;;3.53;0.30;;;1.40;99.90;;;;;;5073434;28;20555;-73
2023/01/17 02:27:59;;;;;;;4.90;0.30;;;1.30;99.90;;;;;;5104698;28;20032;-73
2023/01/17 02:30:47;;;;;;;7.03;0.25;;;1.20;99.90;;;;;;5099600;28;20074;-73
2023/01/17 02:33:31;;;;;;;4.32;0.35;;;1.10;99.90;;;;;;5079941;28;20048;-73
2023/01/17 02:36:06;;;;;;;5.30;0.85;;;1.00;99.90;;;;;;5079919;28;20056;-73
2023/01/17 02:39:04;;;;;;;4.78;0.90;;;0.90;99.90;;;;;;5093438;28;20036;-73
2023/01/17 02:41:43;;;;;;;4.82;0.30;;;0.90;99.90;;;;;;5070964;28;20597;-73
2023/01/17 02:44:14;;;;;;;14.35;0.52;;;0.80;99.90;;;;;;5098096;28;20043;-73
2023/01/17 02:46:54;;;;;;;5.20;0.50;;;0.80;99.90;;;;;;5100339;28;20096;-73
2023/01/17 02:49:24;;;;;;;4.28;0.40;;;0.80;99.90;;;;;;5096730;28;20047;-73
2023/01/17 02:51:56;;;;;;;11.55;1.27;;;0.80;99.90;;;;;;5078489;28;20111;-73
2023/01/17 02:55:03;;;;;;;6.00;0.70;;;0.80;99.90;;;;;;5101663;28;20044;-73
2023/01/17 02:57:57;;;;;;;4.68;0.65;;;0.80;99.90;;;;;;5082356;28;20068;-72
2023/01/17 03:00:26;;;;;;;5.25;1.33;;;0.90;99.90;;;;;;5077311;28;20056;-73
2023/01/17 03:03:15;;;;;;;10.20;0.77;;;0.90;99.90;;;;;;5077761;28;20079;-73
2023/01/17 03:05:53;;;;;;;2.55;0.10;;;1.10;99.90;;;;;;5101095;28;20121;-73
2023/01/17 03:08:19;;;;;;;0.88;0.50;;;1.20;99.90;;;;;;5061989;28;20044;-72
2023/01/17 03:10:45;;;;;;;2.97;0.15;;;1.20;99.90;;;;;;5091415;28;20048;-72
2023/01/17 03:13:11;;;;;;;4.63;0.20;;;1.20;99.90;;;;;;5073225;28;20051;-72
2023/01/17 03:15:39;;;;;;;2.87;0.30;;;1.20;99.90;;;;;;5092031;28;20040;-72
2023/01/17 03:18:09;;;;;;;5.60;0.52;;;1.20;99.90;;;;;;5093454;28;20786;-72
2023/01/17 03:20:35;;;;;;;2.60;0.30;;;1.30;99.90;;;;;;5077570;28;20123;-72
2023/01/17 03:23:00;;;;;;;5.70;0.83;;;1.30;99.90;;;;;;5096251;28;20067;-72
2023/01/17 03:25:26;;;;;;;11.70;0.60;;;1.40;99.90;;;;;;5070497;28;20043;-72
2023/01/17 03:27:52;;;;;;;7.13;0.50;;;1.50;99.90;;;;;;5083575;28;20123;-73
2023/01/17 03:30:20;;;;;;;6.10;0.40;;;1.50;99.90;;;;;;5088352;28;20435;-72
2023/01/17 03:32:46;;;;;;;6.10;0.32;;;1.50;99.90;;;;;;5095281;28;20059;-72
2023/01/17 03:35:11;;;;;;;4.17;0.50;;;1.60;99.90;;;;;;5075465;28;20483;-72
2023/01/17 03:37:37;;;;;;;5.47;0.50;;;1.50;99.90;;;;;;5066082;28;20032;-72
2023/01/17 03:40:04;;;;;;;10.73;0.73;;;1.40;99.90;;;;;;5096364;28;20101;-72
2023/01/17 03:42:30;;;;;;;5.22;0.98;;;1.30;99.90;;;;;;5089179;28;20036;-72
2023/01/17 03:44:55;;;;;;;8.43;1.07;;;1.30;99.90;;;;;;5077054;28;20042;-72
2023/01/17 03:47:21;;;;;;;6.10;0.60;;;1.20;99.90;;;;;;5085632;28;20127;-72
2023/01/17 03:49:47;;;;;;;5.57;1.17;;;1.10;99.90;;;;;;5090447;28;20035;-72
2023/01/17 03:52:12;;;;;;;6.03;0.50;;;1.00;99.90;;;;;;5075972;28;20067;-72
2023/01/17 03:54:38;;;;;;;7.13;0.40;;;0.90;99.90;;;;;;5086860;28;20042;-72
2023/01/17 03:57:04;;;;;;;5.53;0.37;;;0.90;99.90;;;;;;5088777;28;20571;-72
2023/01/17 03:59:32;;;;;;;4.93;1.17;;;0.80;99.90;;;;;;5060072;28;20047;-72
2023/01/17 04:01:57;;;;;;;5.07;0.32;;;0.80;99.90;;;;;;5089295;28;20051;-72
2023/01/17 04:04:23;;;;;;;4.57;0.20;;;0.70;99.90;;;;;;5070237;28;20033;-72
2023/01/17 04:06:49;;;;;;;5.97;0.37;;;0.70;99.90;;;;;;5093668;28;20036;-72
2023/01/17 04:09:14;;;;;;;3.77;0.30;;;0.80;99.90;;;;;;5071186;28;20059;-72
2023/01/17 04:11:40;;;;;;;4.20;0.40;;;0.80;99.90;;;;;;5065428;28;20193;-72
2023/01/17 04:14:06;;;;;;;3.37;0.20;;;0.80;99.90;;;;;;5066678;28;20533;-72
2023/01/17 04:16:32;;;;;;;1.70;0.37;;;0.70;99.90;;;;;;5086484;28;20047;-72
2023/01/17 04:18:58;;;;;;;3.83;0.20;;;0.70;99.90;;;;;;5086752;28;20432;-72
2023/01/17 04:21:23;;;;;;;5.47;0.37;;;0.50;99.90;;;;;;5089626;28;20040;-72
2023/01/17 04:23:49;;;;;;;3.10;0.30;;;0.40;99.90;;;;;;5094768;28;20101;-72
2023/01/17 04:26:15;;;;;;;16.40;1.47;;;0.30;99.90;;;;;;5086736;28;20043;-72
2023/01/17 04:28:41;;;;;;;4.67;0.20;;;0.20;99.90;;;;;;5085382;28;20425;-72
2023/01/17 04:31:06;;;;;;;1.90;0.30;;;0.10;99.90;;;;;;5091784;28;20654;-72
2023/01/17 04:33:32;;;;;;;3.97;0.60;;;0.00;99.90;;;;;;5091119;28;20104;-72
2023/01/17 04:35:58;;;;;;;4.90;0.20;;;-0.10;99.90;;;;;;5066422;28;20039;-72
2023/01/17 04:38:24;;;;;;;1.53;0.30;;;-0.20;99.90;;;;;;5061743;28;20052;-72
2023/01/17 04:40:50;;;;;;;7.00;0.33;;;-0.20;99.90;;;;;;5089926;28;20028;-72
2023/01/17 04:43:16;;;;;;;4.93;0.60;;;-0.30;99.90;;;;;;5067591;28;20052;-72
2023/01/17 04:45:42;;;;;;;6.97;0.30;;;-0.40;99.90;;;;;;5075228;28;20102;-72
2023/01/17 04:48:11;;;;;;;8.93;1.17;;;-0.60;99.90;;;;;;5083201;28;20040;-72
2023/01/17 04:50:37;;;;;;;5.75;0.22;;;-0.70;99.90;;;;;;5082076;28;20072;-72
2023/01/17 04:53:03;;;;;;;7.10;1.13;;;-0.70;99.90;;;;;;5074765;28;20036;-72
2023/01/17 04:55:28;;;;;;;3.07;0.50;;;-0.80;99.90;;;;;;5081430;28;20052;-72
2023/01/17 04:57:54;;;;;;;3.77;0.30;;;-0.80;99.90;;;;;;5081542;28;20070;-72
2023/01/17 05:00:20;;;;;;;3.97;0.20;;;-0.80;99.90;;;;;;5070537;28;20039;-72
2023/01/17 05:02:46;;;;;;;6.22;0.65;;;-0.90;99.90;;;;;;5090506;28;20080;-72
2023/01/17 05:05:12;;;;;;;9.03;2.20;;;-0.90;99.90;;;;;;5055460;28;20075;-72
2023/01/17 05:07:38;;;;;;;2.60;0.28;;;-0.90;99.90;;;;;;5070797;28;20043;-72
2023/01/17 05:10:04;;;;;;;3.70;0.20;;;-0.90;99.90;;;;;;5088869;28;20044;-72
2023/01/17 05:12:30;;;;;;;5.50;1.05;;;-0.80;99.90;;;;;;5062608;28;20127;-72
2023/01/17 05:14:55;;;;;;;7.07;1.23;;;-0.80;99.90;;;;;;5063312;28;20044;-72
2023/01/17 05:17:21;;;;;;;4.13;0.47;;;-0.80;99.90;;;;;;5079113;28;20531;-72
2023/01/17 05:19:47;;;;;;;2.10;0.30;;;-0.80;99.90;;;;;;5059310;28;20036;-72
2023/01/17 05:22:14;;;;;;;3.17;0.20;;;-0.90;99.90;;;;;;5062065;28;20384;-72
2023/01/17 05:24:41;;;;;;;4.75;0.38;;;-0.90;99.90;;;;;;5070207;28;20044;-72
2023/01/17 05:27:07;;;;;;;2.83;0.28;;;-1.00;99.90;;;;;;5070786;28;20043;-72
2023/01/17 05:29:32;;;;;;;3.83;0.23;;;-1.00;99.90;;;;;;5065550;28;20044;-71
2023/01/17 05:31:58;;;;;;;6.53;0.40;;;-1.00;99.90;;;;;;5091062;28;20044;-72
2023/01/17 05:34:24;;;;;;;3.23;0.40;;;-1.00;99.90;;;;;;5085607;28;20048;-72
2023/01/17 05:36:49;;;;;;;4.00;0.30;;;-0.90;99.90;;;;;;5090552;28;20044;-72
2023/01/17 05:39:15;;;;;;;2.33;0.23;;;-0.90;99.90;;;;;;5059868;28;20044;-72
2023/01/17 05:41:41;;;;;;;6.87;0.30;;;-0.50;99.90;;;;;;5076593;28;20047;-72
2023/01/17 05:44:06;;;;;;;5.20;0.30;;;-0.20;99.90;;;;;;5090339;28;20048;-72
2023/01/17 05:46:32;;;;;;;3.80;0.40;;;0.00;99.90;;;;;;5096162;28;20506;-72
2023/01/17 05:48:58;;;;;;;1.87;0.30;;;0.00;99.90;;;;;;5045700;28;20040;-72
2023/01/17 05:51:24;;;;;;;9.23;0.87;;;0.00;99.90;;;;;;5079542;28;20072;-71
2023/01/17 05:53:49;;;;;;;3.20;0.20;;;0.00;99.90;;;;;;5073372;28;20036;-71
2023/01/17 05:56:15;;;;;;;7.57;0.30;;;-0.10;99.90;;;;;;5074550;28;20402;-71
2023/01/17 05:58:41;;;;;;;3.80;0.30;;;-0.20;99.90;;;;;;5095003;28;20535;-71
2023/01/17 06:01:06;;;;;;;3.87;0.27;;;-0.30;99.90;;;;;;5092278;28;20036;-71
2023/01/17 06:03:32;;;;;;;3.40;0.30;;;-0.40;99.90;;;;;;5086479;28;20082;-72
2023/01/17 06:05:58;;;;;;;2.37;0.30;;;-0.50;99.90;;;;;;5094271;28;20099;-72
2023/01/17 06:08:23;;;;;;;3.67;0.40;;;-0.50;99.90;;;;;;5079052;28;20044;-72
2023/01/17 06:10:49;;;;;;;5.40;0.50;;;-0.50;99.90;;;;;;5094990;28;20040;-72
2023/01/17 06:13:19;;;;;;;1.80;0.33;;;-0.60;99.90;;;;;;5070791;28;20048;-72
2023/01/17 06:15:45;;;;;;;5.13;0.30;;;-0.50;99.90;;;;;;5076247;28;20041;-72
2023/01/17 06:18:13;;;;;;;6.17;0.40;;;-0.50;99.90;;;;;;5092144;28;20162;-72
2023/01/17 06:20:39;;;;;;;3.63;0.22;;;-0.50;99.90;;;;;;5089902;28;20118;-72
2023/01/17 06:23:11;;;;;;;4.25;0.85;;;-0.40;99.90;;;;;;5099443;28;20047;-72
2023/01/17 06:25:39;;;;;;;3.65;0.45;;;-0.30;99.90;;;;;;5095917;28;20130;-71
2023/01/17 06:28:06;;;;;;;5.25;0.50;;;-0.20;99.90;;;;;;5099860;28;20843;-71
2023/01/17 06:30:32;;;;;;;3.10;0.50;;;-0.20;99.90;;;;;;5084101;28;20040;-72
2023/01/17 06:32:58;;;;;;;6.78;0.40;;;-0.10;99.90;;;;;;5104811;28;20040;-72
2023/01/17 06:35:24;;;;;;;5.17;0.30;;;0.00;99.90;;;;;;5103675;28;20634;-72
2023/01/17 06:37:54;;;;;;;1.47;0.10;;;0.00;99.90;;;;;;5101122;28;20066;-72
2023/01/17 06:40:20;;;;;;;2.35;0.22;;;0.00;99.90;;;;;;5082068;28;20469;-72
2023/01/17 06:42:46;;;;;;;2.45;0.20;;;0.10;99.90;;;;;;5081596;28;20036;-72
2023/01/17 06:45:12;;;;;;;3.10;0.33;;;0.20;99.90;;;;;;5099158;28;20040;-72
2023/01/17 06:47:39;;;;;;;3.97;0.30;;;0.30;99.90;;;;;;5100576;28;20060;-72
2023/01/17 06:50:06;;;;;;;4.45;0.20;;;0.50;99.90;;;;;;5079120;28;20036;-72
2023/01/17 06:52:32;;;;;;;2.53;0.17;;;0.70;99.90;;;;;;5094157;28;20052;-72
2023/01/17 06:54:58;;;;;;;1.83;0.10;;;0.70;99.90;;;;;;5096441;28;20048;-72
2023/01/17 06:57:24;;;;;;;2.93;0.20;;;0.70;99.90;;;;;;5064548;28;20039;-72
2023/01/17 06:59:49;;;;;;;3.40;0.10;;;0.70;99.90;;;;;;5080710;28;20032;-72
2023/01/17 07:02:15;;;;;;;0.97;0.30;;;0.60;99.90;;;;;;5081275;28;20056;-72
2023/01/17 07:04:41;;;;;;;3.83;0.27;;;0.50;99.90;;;;;;5080005;28;20040;-72
2023/01/17 07:07:06;;;;;;;1.30;0.33;;;0.50;99.90;;;;;;5100680;28;20158;-72
2023/01/17 07:09:32;;;;;;;3.57;0.20;;;0.40;99.90;;;;;;5112703;28;20040;-72
2023/01/17 07:12:00;;;;;;;2.53;0.20;;;0.30;99.90;;;;;;5081175;28;20097;-72
2023/01/17 07:14:29;;;;;;;2.15;0.17;;;0.30;99.90;;;;;;5102144;28;20132;-72
2023/01/17 07:16:55;;;;;;;1.25;0.20;;;0.20;99.90;;;;;;5102545;28;20036;-72
2023/01/17 07:19:22;;;;;;;2.08;0.30;;;0.00;99.90;;;;;;5098745;28;20083;-72
2023/01/17 07:21:52;;;;;;;4.57;0.63;;;-0.10;99.90;;;;;;5084768;28;20040;-72
2023/01/17 07:24:19;;;;;;;3.80;1.25;;;-0.20;99.90;;;;;;5099932;28;20043;-72
2023/01/17 07:26:51;;;;;;;3.33;0.32;;;-0.20;99.90;;;;;;5081864;28;20036;-72
2023/01/17 07:29:17;;;;;;;7.15;0.60;;;-0.30;99.90;;;;;;5087112;28;20040;-72
2023/01/17 07:31:43;;;;;;;2.88;0.50;;;-0.30;99.90;;;;;;5097810;28;20050;-72
2023/01/17 07:34:09;;;;;;;3.13;0.40;;;-0.30;99.90;;;;;;5100351;28;20540;-72
2023/01/17 07:36:35;;;;;;;3.70;0.40;;;-0.30;99.90;;;;;;5084412;28;20090;-72
2023/01/17 07:39:01;;;;;;;3.80;0.57;;;-0.30;99.90;;;;;;5066957;28;20032;-72
2023/01/17 07:41:31;;;;;;;2.90;0.63;;;-0.40;99.90;;;;;;5105368;28;20042;-73
2023/01/17 07:43:58;;;;;;;2.05;0.40;;;-0.40;99.90;;;;;;5081798;28;20040;-72
2023/01/17 07:46:23;;;;;;;2.53;0.40;;;-0.40;99.90;;;;;;5109609;28;20095;-73
2023/01/17 07:48:49;;;;;;;4.10;0.37;;;-0.50;99.90;;;;;;5087882;28;20800;-72
2023/01/17 07:51:16;;;;;;;2.70;0.30;;;-0.60;99.90;;;;;;5107438;28;20121;-72
2023/01/17 07:53:42;;;;;;;2.40;0.50;;;-0.60;99.90;;;;;;5088613;28;20409;-72
2023/01/17 07:56:08;;;;;;;2.53;0.30;;;-0.70;99.90;;;;;;5104211;28;20052;-72
2023/01/17 07:58:35;;;;;;;4.07;0.47;;;-0.80;99.90;;;;;;5093558;28;20044;-72
2023/01/17 08:01:07;;;;;;;4.93;1.13;;;-0.90;99.90;;;;;;5076133;28;20052;-72
2023/01/17 08:03:38;;;;;;;2.65;0.55;;;-0.90;99.90;;;;;;5099450;28;20048;-72
2023/01/17 08:06:17;;;;;;;3.25;0.28;;;-1.00;99.90;;;;;;5083005;28;20099;-73
2023/01/17 08:08:43;;;;;;;4.05;0.20;;;-1.00;99.90;;;;;;5101047;28;20093;-72
2023/01/17 08:11:09;;;;;;;2.20;0.35;;;-1.00;99.90;;;;;;5098470;28;20488;-72
2023/01/17 08:13:35;;;;;;;4.53;0.20;;;-0.90;99.90;;;;;;5080421;28;20075;-72
2023/01/17 08:16:03;;;;;;;4.50;0.43;;;-0.80;99.90;;;;;;5093643;28;20058;-72
2023/01/17 08:18:29;;;;;;;2.38;0.50;;;-0.80;99.90;;;;;;5094507;28;20043;-72
2023/01/17 08:20:55;;;;;;;2.95;0.60;;;-0.70;99.90;;;;;;5093210;28;20357;-72
2023/01/17 08:23:21;;;;;;;3.53;0.40;;;-0.70;99.90;;;;;;5093600;28;20542;-72
2023/01/17 08:25:47;;;;;;;3.67;0.45;;;-0.70;99.90;;;;;;5093657;28;20068;-72
2023/01/17 08:28:14;;;;;;;2.63;0.30;;;-0.70;99.90;;;;;;5077185;28;20111;-72
2023/01/17 08:30:40;;;;;;;2.03;0.38;;;-0.70;99.90;;;;;;5095824;28;20050;-72
2023/01/17 08:33:06;;;;;;;7.78;0.55;;;-0.70;99.90;;;;;;5092885;28;20148;-72
2023/01/17 08:35:32;;;;;;;6.88;0.50;;;-0.70;99.90;;;;;;5090774;28;20055;-72
2023/01/17 08:38:03;;;;;;;4.93;0.40;;;-0.60;99.90;;;;;;5089632;28;20051;-72
2023/01/17 08:40:32;;;;;;;4.13;0.40;;;-0.40;99.90;;;;;;5075198;28;20136;-73
2023/01/17 08:42:59;;;;;;;5.78;0.50;;;-0.20;99.90;;;;;;5090798;28;20127;-73
2023/01/17 08:45:26;;;;;;;3.20;0.40;;;-0.10;99.90;;;;;;5074826;28;20089;-73
2023/01/17 08:47:52;;;;;;;2.88;0.40;;;0.00;99.90;;;;;;5091498;28;20833;-72
2023/01/17 08:50:21;;;;;;;4.30;0.60;;;0.20;99.90;;;;;;5087793;28;20048;-73
2023/01/17 08:52:49;;;;;;;5.22;0.70;;;0.20;99.90;;;;;;5089120;28;20040;-73
2023/01/17 08:55:17;;;;;;;5.70;0.40;;;0.10;99.90;;;;;;5093856;28;20123;-73
2023/01/17 08:57:43;;;;;;;5.45;0.50;;;0.10;99.90;;;;;;5095363;28;20474;-73
2023/01/17 09:00:09;;;;;;;3.63;0.60;;;0.10;99.90;;;;;;5064913;28;20071;-72
2023/01/17 09:02:35;;;;;;;4.03;0.50;;;0.00;99.90;;;;;;5079192;28;20051;-72
2023/01/17 09:05:01;;;;;;;4.50;0.63;;;-0.10;99.90;;;;;;5081516;28;20101;-72
2023/01/17 09:07:27;;;;;;;4.97;1.00;;;-0.10;99.90;;;;;;5094264;28;20078;-73
2023/01/17 09:09:53;;;;;;;6.20;0.67;;;-0.10;99.90;;;;;;5076498;28;20036;-73
2023/01/17 09:12:21;;;;;;;8.60;0.70;;;-0.10;99.90;;;;;;5080422;28;20338;-74
2023/01/17 09:14:47;;;;;;;4.20;0.40;;;0.00;99.90;;;;;;5091589;28;20285;-72
2023/01/17 09:17:13;;;;;;;7.45;0.82;;;0.10;99.90;;;;;;5058081;28;20040;-72
2023/01/17 09:19:43;;;;;;;3.92;0.32;;;0.20;99.90;;;;;;5073516;28;20036;-72
2023/01/17 09:22:11;;;;;;;2.58;0.90;;;0.30;99.90;;;;;;5100661;28;20047;-72
2023/01/17 09:24:38;;;;;;;6.15;0.50;;;0.40;99.90;;;;;;5072895;28;20113;-73
2023/01/17 09:27:03;;;;;;;3.53;0.30;;;0.50;99.90;;;;;;5071532;28;20051;-72
2023/01/17 09:29:29;;;;;;;3.53;0.50;;;0.60;99.90;;;;;;5089606;28;20040;-72
2023/01/17 09:31:55;;;;;;;2.40;0.30;;;0.60;99.90;;;;;;5091365;28;20119;-72
2023/01/17 09:34:23;;;;;;;3.13;0.50;;;0.70;99.90;;;;;;5072192;28;20115;-72
2023/01/17 09:36:49;;;;;;;3.05;0.45;;;0.70;99.90;;;;;;5089958;28;20500;-73
2023/01/17 09:39:15;;;;;;;2.90;0.50;;;0.80;99.90;;;;;;5089746;28;20058;-72
2023/01/17 09:42:07;;;;;;;3.03;0.65;;;0.90;99.90;;;;;;5073003;28;20046;-72
2023/01/17 09:44:46;;;;;;;2.08;0.30;;;0.90;99.90;;;;;;5074270;28;20133;-72
2023/01/17 09:47:39;;;;;;;3.85;0.70;;;0.90;99.90;;;;;;5075316;28;20040;-72
2023/01/17 09:50:26;;;;;;;3.30;0.43;;;1.00;99.90;;;;;;5082513;28;20036;-72
2023/01/17 09:53:01;;;;;;;3.70;0.73;;;1.00;99.90;;;;;;5074072;28;20066;-72
2023/01/17 09:55:56;;;;;;;3.33;0.50;;;1.10;99.90;;;;;;5059353;28;20048;-72
2023/01/17 09:58:39;;;;;;;2.13;0.28;;;1.20;99.90;;;;;;5078437;28;20048;-72
2023/01/17 10:01:31;;;;;;;2.38;0.30;;;1.20;99.90;;;;;;5069538;28;20043;-72
2023/01/17 10:04:35;;;;;;;1.60;0.30;;;1.30;99.90;;;;;;5094757;28;20059;-72
2023/01/17 10:07:19;;;;;;;4.13;0.40;;;1.30;99.90;;;;;;5076386;28;20075;-72
2023/01/17 10:10:03;;;;;;;3.55;0.30;;;1.40;99.90;;;;;;5087107;28;20032;-72
2023/01/17 10:12:54;;;;;;;2.45;0.40;;;1.50;99.90;;;;;;5087005;28;20515;-72
2023/01/17 10:15:50;;;;;;;2.75;0.40;;;1.50;99.90;;;;;;5091083;28;20086;-72
2023/01/17 10:18:40;;;;;;;2.78;0.43;;;1.60;99.90;;;;;;5075995;28;20044;-72
2023/01/17 10:21:33;;;;;;;2.72;0.40;;;1.50;99.90;;;;;;5088601;28;20045;-72
2023/01/17 10:24:23;;;;;;;5.97;0.30;;;1.40;99.90;;;;;;5058953;28;20098;-72
2023/01/17 10:26:53;;;;;;;8.88;0.70;;;1.30;99.90;;;;;;5074158;28;20072;-72
2023/01/17 10:29:19;;;;;;;2.83;0.30;;;1.40;99.90;;;;;;5092444;28;20040;-72
2023/01/17 10:31:57;;;;;;;3.80;0.32;;;1.40;99.90;;;;;;5077540;28;20059;-72
2023/01/17 10:34:38;;;;;;;5.90;0.70;;;1.50;99.90;;;;;;5081779;28;20127;-72
2023/01/17 10:37:39;;;;;;;6.07;0.30;;;1.60;99.90;;;;;;5090452;28;20048;-72
2023/01/17 10:40:42;;;;;;;7.40;1.40;;;1.60;99.90;;;;;;5091623;28;20083;-72
2023/01/17 10:43:21;;;;;;;4.80;0.50;;;1.70;99.90;;;;;;5091808;28;20467;-72
2023/01/17 10:45:55;;;;;;;1.77;0.60;;;1.80;99.90;;;;;;5075594;28;20036;-72
2023/01/17 10:48:42;;;;;;;3.33;0.50;;;1.90;99.90;;;;;;5096733;28;20068;-72
2023/01/17 10:51:15;;;;;;;4.07;0.60;;;2.00;99.90;;;;;;5065017;28;20119;-72
2023/01/17 10:54:07;;;;;;;7.03;0.40;;;2.00;99.90;;;;;;5072377;28;20324;-72
2023/01/17 10:56:33;;;;;;;7.18;0.70;;;2.00;99.90;;;;;;5071503;28;20036;-72
2023/01/17 10:59:29;;;;;;;3.53;0.70;;;2.10;99.90;;;;;;5061467;28;20527;-72
2023/01/17 11:01:55;;;;;;;3.92;0.40;;;2.20;99.90;;;;;;5064114;28;20680;-72
2023/01/17 11:04:40;;;;;;;4.75;0.30;;;2.30;99.90;;;;;;5085576;28;20079;-72
2023/01/17 11:07:21;;;;;;;5.03;0.20;;;2.40;99.90;;;;;;5069709;28;20036;-72
2023/01/17 11:09:50;;;;;;;4.43;0.40;;;2.50;99.90;;;;;;5073472;28;20132;-72
2023/01/17 11:12:38;;;;;;;3.88;0.30;;;2.50;99.90;;;;;;5089871;28;20058;-72
2023/01/17 11:15:07;;;;;;;2.63;0.35;;;2.60;99.90;;;;;;5090271;28;20508;-73
2023/01/17 11:17:40;;;;;;;2.72;0.20;;;2.70;99.90;;;;;;5090022;28;20048;-73
2023/01/17 11:20:38;;;;;;;6.35;0.50;;;2.60;99.90;;;;;;5089516;28;20040;-72
2023/01/17 11:23:13;;;;;;;1.83;0.35;;;2.70;99.90;;;;;;5092034;28;20082;-72
2023/01/17 11:25:47;;;;;;;4.10;1.50;;;2.70;99.90;;;;;;5087556;28;20040;-73
2023/01/17 11:28:28;;;;;;;4.13;0.65;;;2.80;99.90;;;;;;5091984;28;20035;-74
2023/01/17 11:30:56;;;;;;;4.10;0.22;;;2.80;99.90;;;;;;5091037;28;20101;-73
2023/01/17 11:33:43;;;;;;;5.80;0.45;;;2.90;99.90;;;;;;5075188;28;20484;-73
2023/01/17 11:36:26;;;;;;;4.65;0.38;;;2.90;99.90;;;;;;5081398;28;20100;-73
2023/01/17 11:39:02;;;;;;;3.72;0.43;;;3.00;99.90;;;;;;5075357;28;20040;-73
2023/01/17 11:41:39;;;;;;;5.07;0.95;;;3.00;99.90;;;;;;5076300;28;20039;-73
2023/01/17 11:44:25;;;;;;;6.18;0.43;;;3.10;99.90;;;;;;5078832;28;20042;-73
2023/01/17 11:47:17;;;;;;;1.40;0.30;;;3.10;99.90;;;;;;5097579;28;20036;-73
2023/01/17 11:49:45;;;;;;;2.45;0.30;;;3.10;99.90;;;;;;5079949;28;20972;-73
2023/01/17 11:52:21;;;;;;;2.83;0.30;;;3.20;99.90;;;;;;5076508;28;20071;-73
2023/01/17 11:54:48;;;;;;;3.60;0.45;;;3.10;99.90;;;;;;5092229;28;20105;-73
2023/01/17 11:57:17;;;;;;;1.67;0.30;;;3.20;99.90;;;;;;5089927;28;20045;-73
2023/01/17 11:59:43;;;;;;;4.82;0.60;;;3.20;99.90;;;;;;5071297;28;20127;-73
2023/01/17 12:02:30;;;;;;;2.35;0.55;;;3.20;99.90;;;;;;5076652;28;20194;-73
2023/01/17 12:05:05;;;;;;;5.75;0.60;;;3.20;99.90;;;;;;5074524;28;20822;-72
2023/01/17 12:07:46;;;;;;;6.18;0.30;;;3.20;99.90;;;;;;5094306;28;20040;-73
2023/01/17 12:10:28;;;;;;;4.00;0.20;;;3.20;99.90;;;;;;5091745;28;20047;-72
2023/01/17 12:16:28;;;;;;;3.80;0.20;;;3.20;99.90;;;;;;5093462;28;20045;-72
2023/01/17 12:19:31;;;;;;;4.65;0.50;;;3.20;99.90;;;;;;5090874;28;20067;-73
2023/01/17 12:22:21;;;;;;;6.28;1.38;;;3.20;99.90;;;;;;5091093;28;20032;-73
2023/01/17 12:24:50;;;;;;;6.25;0.95;;;3.20;99.90;;;;;;5080678;28;20043;-73
2023/01/17 12:27:22;;;;;;;4.05;0.45;;;3.20;99.90;;;;;;5090831;28;20048;-73
2023/01/17 12:29:57;;;;;;;2.25;0.20;;;3.20;99.90;;;;;;5076533;28;20511;-73
2023/01/17 12:32:46;;;;;;;;;;;3.20;99.90;;;;;;5080211;28;20035;-73
2023/01/17 12:35:26;;;;;;;9.43;1.30;;;3.20;99.90;;;;;;5070019;28;19971;-73
2023/01/17 12:38:18;;;;;;;3.78;0.68;;;3.20;99.90;;;;;;5097376;28;20131;-74
2023/01/17 12:40:56;;;;;;;6.32;0.35;;;3.10;99.90;;;;;;5082411;28;20051;-72
2023/01/17 12:43:36;;;;;;;2.30;0.30;;;3.10;99.90;;;;;;5091198;28;20036;-73
2023/01/17 12:46:12;;;;;;;6.03;0.30;;;3.10;99.90;;;;;;5094106;28;20476;-74
2023/01/17 12:48:38;;;;;;;2.83;0.50;;;3.20;99.90;;;;;;5096580;28;20062;-73
2023/01/17 12:51:17;;;;;;;4.63;0.25;;;3.20;99.90;;;;;;5075653;28;20051;-74
2023/01/17 12:54:08;;;;;;;3.60;0.30;;;3.20;99.90;;;;;;5078904;28;20051;-74
2023/01/17 12:56:49;;;;;;;3.97;0.40;;;3.20;99.90;;;;;;5094513;28;20073;-74
2023/01/17 12:59:26;;;;;;;2.13;0.50;;;3.20;99.90;;;;;;5094805;28;20051;-73
2023/01/17 13:01:58;;;;;;;2.35;0.20;;;3.20;99.90;;;;;;5091558;28;20080;-73
2023/01/17 13:04:45;;;;;;;4.05;0.38;;;3.20;99.90;;;;;;5078146;28;20047;-74
2023/01/17 13:07:41;;;;;;;3.20;0.28;;;3.10;99.90;;;;;;5094056;28;20039;-73
2023/01/17 13:10:21;;;;;;;2.55;0.40;;;3.10;99.90;;;;;;5094612;28;20454;-73
2023/01/17 13:12:48;;;;;;;2.05;0.20;;;3.20;99.90;;;;;;5096318;28;20830;-73
2023/01/17 13:15:23;;;;;;;2.20;0.30;;;3.20;99.90;;;;;;5093385;28;20044;-74
2023/01/17 13:18:05;;;;;;;1.17;0.35;;;3.30;99.90;;;;;;5092583;28;20040;-73
2023/01/17 13:20:40;;;;;;;3.50;0.50;;;3.30;99.90;;;;;;5075990;28;20058;-74
2023/01/17 13:23:17;;;;;;;1.08;0.10;;;3.30;99.90;;;;;;5094869;28;20044;-73
2023/01/17 13:25:49;;;;;;;3.83;0.90;;;3.30;99.90;;;;;;5075117;28;20039;-72
2023/01/17 13:28:32;;;;;;;4.60;0.28;;;3.30;99.90;;;;;;5091655;28;20483;-71
2023/01/17 13:31:38;;;;;;;3.35;0.20;;;3.30;99.90;;;;;;5079636;28;20047;-71
2023/01/17 13:34:24;;;;;;;7.13;1.75;;;3.30;99.90;;;;;;5091506;28;20122;-71
2023/01/17 13:37:03;;;;;;;2.17;0.20;;;3.30;99.90;;;;;;5020121;28;20121;-71
2023/01/17 13:40:01;;;;;;;2.70;0.30;;;3.30;99.90;;;;;;5100702;28;20044;-71
2023/01/17 13:42:45;;;;;;;4.03;0.52;;;3.30;99.90;;;;;;5046227;28;20040;-71
2023/01/17 13:45:20;;;;;;;1.73;0.20;;;3.20;99.90;;;;;;5091301;28;20036;-71
2023/01/17 13:47:46;;;;;;;;;;;3.00;99.90;;;;;;5099820;28;20506;-71
2023/01/17 13:50:39;;;;;;;1.60;0.20;;;2.80;99.90;;;;;;5074630;28;19920;-71
2023/01/17 13:53:27;;;;;;;4.97;0.30;;;2.60;99.90;;;;;;5068046;28;20042;-71
2023/01/17 13:56:29;;;;;;;3.47;0.30;;;2.50;99.90;;;;;;5088158;28;20504;-71
2023/01/17 13:59:03;;;;;;;3.03;0.40;;;2.30;99.90;;;;;;5085168;28;20040;-71
2023/01/17 14:01:37;;;;;;;1.50;0.20;;;2.20;99.90;;;;;;5066682;28;20733;-71
2023/01/17 14:04:10;;;;;;;3.67;0.30;;;2.20;99.90;;;;;;5088331;28;20048;-71
2023/01/17 14:06:40;;;;;;;4.43;0.38;;;2.30;99.90;;;;;;5059796;28;20123;-71
2023/01/17 14:09:11;;;;;;;2.38;0.22;;;2.30;99.90;;;;;;5090770;28;20038;-71
2023/01/17 14:11:57;;;;;;;1.85;0.20;;;2.20;99.90;;;;;;5090633;28;20040;-71
2023/01/17 14:14:41;;;;;;;2.58;0.20;;;2.20;99.90;;;;;;5079587;28;20097;-71
2023/01/17 14:17:34;;;;;;;2.58;0.17;;;2.10;99.90;;;;;;5090670;28;20044;-70
2023/01/17 14:20:03;;;;;;;1.75;0.20;;;2.00;99.90;;;;;;5078711;28;20109;-71
2023/01/17 14:22:35;;;;;;;3.67;0.40;;;2.00;99.90;;;;;;5094056;28;20128;-71
2023/01/17 14:25:13;;;;;;;2.35;0.20;;;2.00;99.90;;;;;;5091003;28;20047;-71
2023/01/17 14:27:42;;;;;;;6.60;0.30;;;2.10;99.90;;;;;;5088734;28;20197;-71
2023/01/17 14:30:25;;;;;;;3.72;0.20;;;2.10;99.90;;;;;;5073932;28;20044;-71
2023/01/17 14:33:00;;;;;;;2.88;0.25;;;2.10;99.90;;;;;;5071412;28;20047;-71
2023/01/17 14:35:29;;;;;;;1.70;0.30;;;2.20;99.90;;;;;;5088505;28;20086;-71
2023/01/17 14:38:00;;;;;;;4.95;0.30;;;2.20;99.90;;;;;;5091315;28;20040;-71
2023/01/17 14:40:29;;;;;;;2.95;0.20;;;2.20;99.90;;;;;;5073276;28;20044;-71
2023/01/17 14:43:12;;;;;;;0.80;0.20;;;2.10;99.90;;;;;;5094428;28;20042;-71
2023/01/17 14:45:39;;;;;;;1.00;0.30;;;2.10;99.90;;;;;;5084185;28;20066;-71
2023/01/17 14:48:14;;;;;;;2.10;0.28;;;2.10;99.90;;;;;;5094543;28;20055;-71
2023/01/17 14:50:42;;;;;;;6.13;0.32;;;2.10;99.90;;;;;;5089672;28;20044;-71